Time;durP1;ratioP1;P1;durP2;ratioP2;P2;SDS_P1;SDS_P2;PMS_P1;PMS_P2;Temp;Humidity;BMP_temperature;BMP_pressure;BME280_temperature;BME280_humidity;BME280_pressure;Samples;Min_cycle;Max_cycle;Signal;HPM_P1;HPM_P2
2023/09/03 00:01:35;;;;;;;9.00;2.90;;;16.60;99.90;;;;;;5085084;28;21237;-75
2023/09/03 00:04:02;;;;;;;3.40;2.67;;;16.50;99.90;;;;;;5085965;28;21104;-74
2023/09/03 00:06:30;;;;;;;3.73;2.80;;;16.60;99.90;;;;;;5085924;28;20609;-74
2023/09/03 00:08:57;;;;;;;2.60;2.40;;;16.60;99.90;;;;;;5085177;28;20650;-74
2023/09/03 00:11:23;;;;;;;3.00;2.80;;;16.60;99.90;;;;;;5085964;28;20625;-74
2023/09/03 00:13:50;;;;;;;4.10;3.03;;;16.50;99.90;;;;;;5086333;28;20665;-74
2023/09/03 00:16:17;;;;;;;2.97;2.57;;;16.50;99.90;;;;;;5084350;28;20643;-74
2023/09/03 00:18:44;;;;;;;3.83;3.50;;;16.50;99.90;;;;;;5084611;28;20670;-75
2023/09/03 00:21:11;;;;;;;3.37;2.80;;;16.60;99.90;;;;;;5085140;28;20633;-75
2023/09/03 00:23:39;;;;;;;3.77;3.03;;;16.60;99.90;;;;;;5085616;28;20628;-75
2023/09/03 00:26:06;;;;;;;4.83;2.90;;;16.60;99.90;;;;;;5086129;28;20629;-74
2023/09/03 00:28:33;;;;;;;3.77;2.87;;;16.60;99.90;;;;;;5085297;28;20989;-74
2023/09/03 00:31:04;;;;;;;2.60;2.40;;;16.60;99.90;;;;;;5085301;28;20629;-74
2023/09/03 00:33:31;;;;;;;2.93;2.73;;;16.60;99.90;;;;;;5089019;28;20632;-75
2023/09/03 00:35:57;;;;;;;3.50;3.20;;;16.50;99.90;;;;;;5089365;28;20632;-75
2023/09/03 00:38:24;;;;;;;3.23;2.67;;;16.50;99.90;;;;;;5089062;28;20675;-74
2023/09/03 00:40:52;;;;;;;4.43;2.17;;;16.60;99.90;;;;;;5088657;28;20620;-74
2023/09/03 00:43:18;;;;;;;2.87;2.50;;;16.50;99.90;;;;;;5088977;28;20719;-74
2023/09/03 00:45:47;;;;;;;2.50;2.30;;;16.50;99.90;;;;;;5089135;27;20629;-74
2023/09/03 00:48:18;;;;;;;3.30;2.80;;;16.50;99.90;;;;;;5089192;28;20645;-74
2023/09/03 00:50:47;;;;;;;3.63;2.80;;;16.50;99.90;;;;;;5087776;28;20626;-75
2023/09/03 00:53:16;;;;;;;3.67;3.23;;;16.40;99.90;;;;;;5088879;28;21592;-75
2023/09/03 00:55:43;;;;;;;4.03;3.10;;;16.40;99.90;;;;;;5089258;28;20630;-75
2023/09/03 00:58:12;;;;;;;2.70;2.50;;;16.40;99.90;;;;;;5088229;28;20663;-75
2023/09/03 01:00:39;;;;;;;3.20;2.90;;;16.40;99.90;;;;;;5088362;28;21205;-74
2023/09/03 01:03:06;;;;;;;4.67;3.43;;;16.40;99.90;;;;;;5088001;28;20643;-75
2023/09/03 01:05:33;;;;;;;12.50;3.20;;;16.40;99.90;;;;;;5088907;28;21199;-74
2023/09/03 01:08:02;;;;;;;2.90;2.70;;;16.50;99.90;;;;;;5088685;28;20978;-74
2023/09/03 01:10:36;;;;;;;3.40;3.10;;;16.50;99.90;;;;;;5088110;28;20660;-74
2023/09/03 01:13:12;;;;;;;3.07;2.77;;;16.40;99.90;;;;;;5088278;28;21438;-74
2023/09/03 01:15:49;;;;;;;3.43;3.13;;;16.40;99.90;;;;;;5088815;28;20742;-74
2023/09/03 01:18:19;;;;;;;3.20;2.90;;;16.40;99.90;;;;;;5087432;28;20662;-75
2023/09/03 01:21:06;;;;;;;4.30;3.20;;;16.40;99.90;;;;;;5088241;28;20712;-74
2023/09/03 01:23:41;;;;;;;5.00;3.20;;;16.40;99.90;;;;;;5089028;28;21151;-74
2023/09/03 01:26:14;;;;;;;5.57;3.10;;;16.40;99.90;;;;;;5088325;28;20616;-75
2023/09/03 01:28:44;;;;;;;4.80;3.40;;;16.40;99.90;;;;;;5088604;28;20640;-75
2023/09/03 01:31:15;;;;;;;3.30;3.00;;;16.30;99.90;;;;;;5087045;28;20639;-74
2023/09/03 01:33:45;;;;;;;5.10;3.23;;;16.30;99.90;;;;;;5088045;28;20645;-75
2023/09/03 01:36:15;;;;;;;3.40;3.10;;;16.30;99.90;;;;;;5088210;28;20636;-74
2023/09/03 01:38:43;;;;;;;4.90;2.97;;;16.30;99.90;;;;;;5087884;28;21013;-75
2023/09/03 01:41:13;;;;;;;4.03;3.67;;;16.30;99.90;;;;;;5088155;28;20647;-75
2023/09/03 01:43:41;;;;;;;5.63;5.20;;;16.30;99.90;;;;;;5087865;28;20978;-75
2023/09/03 01:46:14;;;;;;;4.43;3.03;;;16.20;99.90;;;;;;5087730;28;20624;-74
2023/09/03 01:48:55;;;;;;;5.80;3.47;;;16.20;99.90;;;;;;5087678;28;20714;-74
2023/09/03 01:51:32;;;;;;;3.43;3.13;;;16.20;99.90;;;;;;5086776;28;20693;-74
2023/09/03 01:54:04;;;;;;;2.87;2.60;;;16.20;99.90;;;;;;5087954;28;20732;-74
2023/09/03 01:56:40;;;;;;;3.23;2.70;;;16.20;99.90;;;;;;5087949;28;20627;-75
2023/09/03 01:59:17;;;;;;;2.63;2.43;;;16.30;99.90;;;;;;5087575;28;20672;-74
2023/09/03 02:01:47;;;;;;;2.97;2.70;;;16.20;99.90;;;;;;5087044;28;20922;-75
2023/09/03 02:04:14;;;;;;;3.93;3.50;;;16.20;99.90;;;;;;5087951;28;21031;-74
2023/09/03 02:06:45;;;;;;;3.63;3.33;;;16.20;99.90;;;;;;5087038;28;20623;-74
2023/09/03 02:09:12;;;;;;;3.40;3.13;;;16.10;99.90;;;;;;5086420;28;20748;-74
2023/09/03 02:11:39;;;;;;;3.30;2.80;;;16.20;99.90;;;;;;5087399;28;20620;-75
2023/09/03 02:14:06;;;;;;;3.97;3.57;;;16.10;99.90;;;;;;5087194;28;20640;-75
2023/09/03 02:16:33;;;;;;;4.33;3.80;;;16.10;99.90;;;;;;5086052;28;21226;-75
2023/09/03 02:19:02;;;;;;;5.20;3.70;;;16.10;99.90;;;;;;5087358;28;20643;-74
2023/09/03 02:21:30;;;;;;;3.13;2.87;;;16.10;99.90;;;;;;5086090;28;20794;-74
2023/09/03 02:23:58;;;;;;;2.57;2.37;;;16.00;99.90;;;;;;5086619;28;20628;-74
2023/09/03 02:26:26;;;;;;;3.53;3.23;;;16.10;99.90;;;;;;5087153;28;20634;-74
2023/09/03 02:28:53;;;;;;;5.63;3.00;;;16.10;99.90;;;;;;5086857;28;21141;-75
2023/09/03 02:31:21;;;;;;;3.80;3.50;;;16.10;99.90;;;;;;5086241;28;20687;-75
2023/09/03 02:33:49;;;;;;;3.20;3.00;;;16.10;99.90;;;;;;5087743;28;21113;-75
2023/09/03 02:36:18;;;;;;;3.67;3.37;;;16.10;99.90;;;;;;5086517;28;20683;-74
2023/09/03 02:38:47;;;;;;;3.90;3.30;;;16.10;99.90;;;;;;5087006;28;21286;-75
2023/09/03 02:41:14;;;;;;;3.33;3.03;;;16.00;99.90;;;;;;5086534;28;20994;-75
2023/09/03 02:43:42;;;;;;;4.80;3.80;;;16.00;99.90;;;;;;5087000;28;20637;-74
2023/09/03 02:46:10;;;;;;;3.77;3.10;;;15.90;99.90;;;;;;5086316;28;21705;-74
2023/09/03 02:48:38;;;;;;;3.70;3.40;;;15.90;99.90;;;;;;5085978;28;20645;-75
2023/09/03 02:51:05;;;;;;;4.70;3.97;;;15.80;99.90;;;;;;5086076;28;20649;-74
2023/09/03 02:53:33;;;;;;;3.60;3.30;;;15.80;99.90;;;;;;5086642;28;21077;-75
2023/09/03 02:56:00;;;;;;;3.60;3.30;;;15.80;99.90;;;;;;5087348;28;20975;-74
2023/09/03 02:58:27;;;;;;;5.60;2.77;;;15.90;99.90;;;;;;5086699;28;20648;-75
2023/09/03 03:00:54;;;;;;;3.67;3.30;;;15.80;99.90;;;;;;5086178;28;20632;-74
2023/09/03 03:03:21;;;;;;;2.90;2.70;;;15.80;99.90;;;;;;5085087;28;20635;-74
2023/09/03 03:05:52;;;;;;;3.23;2.77;;;15.80;99.90;;;;;;5087569;28;20623;-75
2023/09/03 03:08:19;;;;;;;3.70;3.13;;;15.80;99.90;;;;;;5086420;28;20652;-74
2023/09/03 03:10:47;;;;;;;4.83;3.07;;;15.80;99.90;;;;;;5085138;28;20633;-74
2023/09/03 03:13:13;;;;;;;3.80;3.50;;;15.80;99.90;;;;;;5086297;28;21012;-74
2023/09/03 03:15:40;;;;;;;2.53;2.33;;;15.80;99.90;;;;;;5085504;28;21580;-74
2023/09/03 03:18:07;;;;;;;2.60;2.47;;;15.80;99.90;;;;;;5085645;28;20636;-75
2023/09/03 03:20:34;;;;;;;3.50;3.20;;;15.80;99.90;;;;;;5085553;28;21464;-75
2023/09/03 03:23:01;;;;;;;2.93;2.70;;;15.80;99.90;;;;;;5086721;28;20951;-74
2023/09/03 03:25:27;;;;;;;3.40;3.10;;;15.70;99.90;;;;;;5085879;28;21274;-74
2023/09/03 03:27:56;;;;;;;3.20;2.87;;;15.70;99.90;;;;;;5086035;28;21157;-74
2023/09/03 03:30:22;;;;;;;3.67;3.17;;;15.60;99.90;;;;;;5084886;28;20633;-74
2023/09/03 03:32:49;;;;;;;3.67;3.37;;;15.60;99.90;;;;;;5085666;28;20636;-74
2023/09/03 03:35:16;;;;;;;3.47;2.83;;;15.60;99.90;;;;;;5086581;28;20638;-75
2023/09/03 03:37:43;;;;;;;2.33;2.23;;;15.60;99.90;;;;;;5086292;28;21072;-75
2023/09/03 03:40:10;;;;;;;7.20;3.20;;;15.60;99.90;;;;;;5085743;28;21021;-74
2023/09/03 03:42:37;;;;;;;4.47;2.57;;;15.60;99.90;;;;;;5086046;28;20736;-75
2023/09/03 03:45:06;;;;;;;2.80;2.60;;;15.60;99.90;;;;;;5086147;28;21408;-74
2023/09/03 03:47:33;;;;;;;8.20;3.43;;;15.50;99.90;;;;;;5085906;28;20636;-74
2023/09/03 03:50:00;;;;;;;3.50;3.20;;;15.50;99.90;;;;;;5085303;28;21285;-74
2023/09/03 03:52:26;;;;;;;3.43;3.17;;;15.50;99.90;;;;;;5086232;28;20624;-74
2023/09/03 03:54:53;;;;;;;3.40;3.10;;;15.50;99.90;;;;;;5085500;28;20642;-74
2023/09/03 03:57:20;;;;;;;3.93;3.57;;;15.50;99.90;;;;;;5086071;28;20998;-74
2023/09/03 03:59:47;;;;;;;4.60;4.20;;;15.50;99.90;;;;;;5084671;28;20671;-74
2023/09/03 04:02:15;;;;;;;2.77;2.57;;;15.50;99.90;;;;;;5085459;28;20625;-74
2023/09/03 04:04:42;;;;;;;3.60;3.30;;;15.50;99.90;;;;;;5086516;28;20697;-75
2023/09/03 04:07:09;;;;;;;5.00;4.53;;;15.40;99.90;;;;;;5087871;28;21006;-75
2023/09/03 04:09:37;;;;;;;3.80;3.40;;;15.40;99.90;;;;;;5089009;28;20637;-74
2023/09/03 04:12:04;;;;;;;3.80;3.50;;;15.40;99.90;;;;;;5089564;28;20625;-75
2023/09/03 04:14:31;;;;;;;3.47;3.00;;;15.40;99.90;;;;;;5089602;28;20624;-74
2023/09/03 04:16:58;;;;;;;3.97;3.43;;;15.50;99.90;;;;;;5088739;28;20620;-74
2023/09/03 04:19:26;;;;;;;3.30;2.97;;;15.40;99.90;;;;;;5088837;28;20658;-75
2023/09/03 04:21:53;;;;;;;3.90;3.20;;;15.40;99.90;;;;;;5089011;28;20627;-74
2023/09/03 04:24:19;;;;;;;4.33;3.93;;;15.40;99.90;;;;;;5089460;28;21013;-74
2023/09/03 04:26:46;;;;;;;5.80;4.30;;;15.40;99.90;;;;;;5088987;28;20637;-75
2023/09/03 04:29:13;;;;;;;4.30;3.93;;;15.40;99.90;;;;;;5089275;28;20673;-74
2023/09/03 04:31:40;;;;;;;3.90;3.47;;;15.40;99.90;;;;;;5089377;28;20631;-74
2023/09/03 04:34:08;;;;;;;3.80;3.50;;;15.40;99.90;;;;;;5088079;28;20629;-75
2023/09/03 04:36:36;;;;;;;3.93;3.57;;;15.40;99.90;;;;;;5089081;28;20712;-74
2023/09/03 04:39:03;;;;;;;3.80;3.50;;;15.40;99.90;;;;;;5088792;28;21235;-74
2023/09/03 04:41:30;;;;;;;3.60;3.30;;;15.40;99.90;;;;;;5089774;28;20689;-75
2023/09/03 04:44:07;;;;;;;4.20;3.80;;;15.30;99.90;;;;;;5089302;28;20632;-75
2023/09/03 04:46:34;;;;;;;3.30;3.10;;;15.40;99.90;;;;;;5089111;28;20635;-74
2023/09/03 04:49:01;;;;;;;4.77;3.70;;;15.40;99.90;;;;;;5087860;28;20623;-74
2023/09/03 04:51:28;;;;;;;3.70;3.30;;;15.40;99.90;;;;;;5088358;28;20728;-74
2023/09/03 04:53:56;;;;;;;3.20;2.90;;;15.30;99.90;;;;;;5088731;28;20663;-74
2023/09/03 04:56:23;;;;;;;4.10;3.77;;;15.30;99.90;;;;;;5088956;28;20629;-73
2023/09/03 04:58:53;;;;;;;4.00;3.20;;;15.30;99.90;;;;;;5089557;28;20627;-74
2023/09/03 05:01:20;;;;;;;3.67;3.37;;;15.30;99.90;;;;;;5087784;28;20624;-74
2023/09/03 05:03:47;;;;;;;3.47;3.27;;;15.30;99.90;;;;;;5088965;28;20616;-75
2023/09/03 05:06:15;;;;;;;4.60;4.23;;;15.40;99.90;;;;;;5088667;28;20629;-74
2023/09/03 05:08:42;;;;;;;3.70;3.40;;;15.40;99.90;;;;;;5088769;28;20653;-74
2023/09/03 05:11:12;;;;;;;4.20;3.60;;;15.50;99.90;;;;;;5088912;28;20637;-74
2023/09/03 05:13:39;;;;;;;4.17;3.77;;;15.40;99.90;;;;;;5088120;28;21105;-75
2023/09/03 05:16:06;;;;;;;3.73;3.43;;;15.50;99.90;;;;;;5087087;28;20635;-74
2023/09/03 05:18:33;;;;;;;3.93;3.53;;;15.50;99.90;;;;;;5087105;28;21209;-74
2023/09/03 05:21:05;;;;;;;3.50;3.20;;;15.50;99.90;;;;;;5087222;28;21901;-75
2023/09/03 05:23:32;;;;;;;3.40;2.93;;;15.60;99.90;;;;;;5087962;28;20632;-75
2023/09/03 05:25:59;;;;;;;4.03;3.63;;;15.60;99.90;;;;;;5087993;28;20744;-74
2023/09/03 05:28:27;;;;;;;3.83;3.57;;;15.60;99.90;;;;;;5088477;28;20628;-74
2023/09/03 05:30:54;;;;;;;3.50;3.07;;;15.70;99.90;;;;;;5087680;28;20629;-74
2023/09/03 05:33:21;;;;;;;3.93;3.63;;;15.70;99.90;;;;;;5088051;28;20634;-74
2023/09/03 05:35:47;;;;;;;3.60;3.30;;;15.70;99.90;;;;;;5087931;28;20646;-74
2023/09/03 05:38:14;;;;;;;4.23;3.57;;;15.80;99.90;;;;;;5088507;28;20632;-75
2023/09/03 05:40:41;;;;;;;4.60;4.20;;;15.80;99.90;;;;;;5087319;28;21262;-74
2023/09/03 05:43:09;;;;;;;3.80;3.30;;;15.90;99.90;;;;;;5088547;28;20635;-75
2023/09/03 05:45:44;;;;;;;4.40;3.97;;;15.90;99.90;;;;;;5087851;28;20640;-74
2023/09/03 05:48:11;;;;;;;4.10;3.70;;;15.90;99.90;;;;;;5087682;28;20642;-74
2023/09/03 05:50:37;;;;;;;4.50;3.83;;;16.00;99.90;;;;;;5085253;28;20645;-74
2023/09/03 05:53:04;;;;;;;5.07;3.60;;;16.00;99.90;;;;;;5087867;28;20629;-74
2023/09/03 05:55:31;;;;;;;6.43;4.30;;;16.10;99.90;;;;;;5087308;28;20633;-74
2023/09/03 05:57:59;;;;;;;3.87;3.33;;;16.10;99.90;;;;;;5087743;28;20635;-74
2023/09/03 06:00:26;;;;;;;3.97;3.60;;;16.20;99.90;;;;;;5085875;28;20667;-75
2023/09/03 06:02:54;;;;;;;4.50;4.10;;;16.20;99.90;;;;;;5087963;28;20624;-74
2023/09/03 06:05:21;;;;;;;4.37;3.43;;;16.30;99.90;;;;;;5087794;28;20620;-74
2023/09/03 06:07:47;;;;;;;4.40;3.50;;;16.40;99.90;;;;;;5087307;28;20637;-74
2023/09/03 06:10:14;;;;;;;3.40;3.10;;;16.50;99.90;;;;;;5087443;28;20636;-74
2023/09/03 06:12:41;;;;;;;3.60;3.30;;;16.50;99.90;;;;;;5086299;28;20633;-74
2023/09/03 06:15:09;;;;;;;4.40;4.00;;;16.60;99.90;;;;;;5086916;28;20640;-75
2023/09/03 06:17:35;;;;;;;5.00;4.03;;;16.70;99.90;;;;;;5087128;28;20980;-74
2023/09/03 06:20:04;;;;;;;3.30;3.00;;;16.80;99.90;;;;;;5087002;28;20655;-74
2023/09/03 06:22:31;;;;;;;4.10;3.70;;;16.90;99.90;;;;;;5086446;28;20626;-73
2023/09/03 06:24:58;;;;;;;4.60;3.60;;;16.90;99.90;;;;;;5086187;28;20637;-73
2023/09/03 06:27:24;;;;;;;4.10;3.77;;;16.90;99.90;;;;;;5085680;28;21000;-73
2023/09/03 06:29:51;;;;;;;4.47;3.63;;;17.10;99.90;;;;;;5086070;28;20635;-73
2023/09/03 06:32:18;;;;;;;3.53;3.23;;;17.10;99.90;;;;;;5086567;28;20635;-73
2023/09/03 06:34:45;;;;;;;3.70;3.40;;;17.20;99.90;;;;;;5086408;28;21680;-73
2023/09/03 06:37:13;;;;;;;4.00;3.60;;;17.30;99.90;;;;;;5086455;28;20640;-73
2023/09/03 06:39:41;;;;;;;4.17;3.77;;;17.40;99.90;;;;;;5085974;28;20648;-73
2023/09/03 06:42:08;;;;;;;3.53;3.23;;;17.50;99.90;;;;;;5085574;28;20628;-73
2023/09/03 06:44:35;;;;;;;4.13;3.70;;;17.50;99.90;;;;;;5086561;28;21533;-72
2023/09/03 06:47:02;;;;;;;3.60;3.30;;;17.60;99.90;;;;;;5086724;28;20630;-72
2023/09/03 06:49:29;;;;;;;3.37;3.07;;;17.70;99.90;;;;;;5086145;28;20733;-73
2023/09/03 06:51:55;;;;;;;4.00;3.67;;;17.70;99.90;;;;;;5086759;28;20631;-73
2023/09/03 06:54:24;;;;;;;3.97;3.60;;;17.80;99.90;;;;;;5087906;28;20628;-73
2023/09/03 06:56:50;;;;;;;4.03;3.57;;;17.90;99.90;;;;;;5085968;28;20661;-73
2023/09/03 06:59:20;;;;;;;3.70;3.23;;;18.00;99.90;;;;;;5086021;28;20637;-73
2023/09/03 07:01:47;;;;;;;3.07;2.73;;;18.00;99.90;;;;;;5085626;28;20625;-74
2023/09/03 07:04:14;;;;;;;4.67;3.80;;;18.10;99.90;;;;;;5086626;28;20636;-75
2023/09/03 07:06:41;;;;;;;4.27;3.80;;;18.10;99.90;;;;;;5085753;28;20765;-74
2023/09/03 07:09:10;;;;;;;3.50;3.20;;;18.20;99.90;;;;;;5083986;28;20636;-73
2023/09/03 07:11:38;;;;;;;4.60;3.93;;;18.30;99.90;;;;;;5086770;28;20966;-74
2023/09/03 07:14:05;;;;;;;3.83;3.50;;;18.40;99.90;;;;;;5085990;28;20669;-74
2023/09/03 07:16:32;;;;;;;5.53;3.90;;;18.50;99.90;;;;;;5086571;28;20998;-74
2023/09/03 07:18:59;;;;;;;4.53;3.93;;;18.50;99.90;;;;;;5086130;28;20664;-73
2023/09/03 07:21:26;;;;;;;3.63;3.30;;;18.50;99.90;;;;;;5085283;28;20660;-74
2023/09/03 07:23:54;;;;;;;5.33;4.10;;;18.50;99.90;;;;;;5085519;28;20632;-74
2023/09/03 07:26:21;;;;;;;3.90;3.50;;;18.60;99.90;;;;;;5086444;28;20673;-73
2023/09/03 07:28:49;;;;;;;4.83;4.43;;;18.70;99.90;;;;;;5086796;28;21051;-74
2023/09/03 07:31:16;;;;;;;4.50;4.17;;;18.80;99.90;;;;;;5085279;28;20732;-74
2023/09/03 07:33:44;;;;;;;4.90;4.50;;;18.80;99.90;;;;;;5086222;28;20752;-74
2023/09/03 07:36:12;;;;;;;5.37;4.77;;;18.90;99.90;;;;;;5085210;28;20635;-74
2023/09/03 07:38:39;;;;;;;5.27;4.80;;;19.00;99.90;;;;;;5086470;28;20767;-74
2023/09/03 07:41:06;;;;;;;5.43;3.63;;;19.10;99.90;;;;;;5087497;28;20674;-74
2023/09/03 07:43:35;;;;;;;5.77;4.20;;;19.10;99.90;;;;;;5089937;28;20800;-73
2023/09/03 07:46:05;;;;;;;6.00;3.70;;;19.20;99.90;;;;;;5091303;28;20627;-74
2023/09/03 07:48:31;;;;;;;5.73;4.60;;;19.30;99.90;;;;;;5089840;28;20625;-74
2023/09/03 07:50:58;;;;;;;5.17;4.43;;;19.20;99.90;;;;;;5088698;28;20646;-73
2023/09/03 07:53:25;;;;;;;5.30;3.93;;;19.20;99.90;;;;;;5089496;28;21713;-73
2023/09/03 07:55:52;;;;;;;5.37;4.03;;;19.30;99.90;;;;;;5090821;28;21666;-73
2023/09/03 07:58:18;;;;;;;5.13;4.70;;;19.40;99.90;;;;;;5083871;28;20638;-73
2023/09/03 08:00:46;;;;;;;6.70;4.33;;;19.40;99.90;;;;;;5088753;28;21227;-74
2023/09/03 08:03:14;;;;;;;5.73;3.70;;;19.40;99.90;;;;;;5088486;28;20657;-74
2023/09/03 08:05:40;;;;;;;8.30;3.40;;;19.50;99.90;;;;;;5088760;28;20632;-74
2023/09/03 08:08:07;;;;;;;3.57;3.20;;;19.60;99.90;;;;;;5089651;28;20630;-74
2023/09/03 08:10:34;;;;;;;6.30;3.10;;;19.60;99.90;;;;;;5088560;28;20638;-74
2023/09/03 08:13:01;;;;;;;4.40;3.00;;;19.70;99.90;;;;;;5089266;28;20627;-74
2023/09/03 08:15:28;;;;;;;3.73;3.33;;;19.80;99.90;;;;;;5087942;28;20642;-74
2023/09/03 08:17:54;;;;;;;4.70;3.13;;;19.90;99.90;;;;;;5088792;28;20626;-74
2023/09/03 08:20:23;;;;;;;3.50;2.93;;;20.10;99.90;;;;;;5087831;28;21254;-74
2023/09/03 08:22:49;;;;;;;3.37;2.83;;;20.30;99.90;;;;;;5089035;28;20628;-75
2023/09/03 08:25:16;;;;;;;3.30;2.87;;;20.60;99.90;;;;;;5082515;28;20626;-74
2023/09/03 08:27:44;;;;;;;6.80;3.37;;;20.60;99.90;;;;;;5084211;28;21085;-74
2023/09/03 08:30:11;;;;;;;3.00;2.60;;;20.50;99.90;;;;;;5087828;28;20643;-74
2023/09/03 08:32:38;;;;;;;3.70;3.30;;;20.50;99.90;;;;;;5086147;28;20642;-74
2023/09/03 08:35:06;;;;;;;3.60;3.30;;;20.50;99.90;;;;;;5088539;28;20627;-74
2023/09/03 08:37:34;;;;;;;3.03;2.83;;;20.40;99.90;;;;;;5085372;28;20628;-74
2023/09/03 08:40:14;;;;;;;5.63;3.00;;;20.40;99.90;;;;;;5082089;28;20636;-74
2023/09/03 08:42:47;;;;;;;4.17;3.57;;;20.60;99.90;;;;;;5084503;28;21378;-74
2023/09/03 08:45:17;;;;;;;3.17;2.97;;;20.60;99.90;;;;;;5084839;28;20630;-73
2023/09/03 08:52:08;;;;;;;3.23;2.93;;;20.60;99.90;;;;;;4893673;28;20629;-74
2023/09/03 08:54:36;;;;;;;6.63;2.27;;;20.80;99.90;;;;;;4965743;28;21003;-74
2023/09/03 08:57:04;;;;;;;4.60;3.70;;;21.10;99.90;;;;;;5075175;28;20638;-74
2023/09/03 08:59:31;;;;;;;2.80;2.60;;;21.10;99.90;;;;;;5086186;28;21067;-74
2023/09/03 09:02:00;;;;;;;3.60;3.30;;;21.20;99.90;;;;;;5087669;28;20670;-74
2023/09/03 09:04:30;;;;;;;5.20;2.53;;;21.40;99.90;;;;;;5087862;28;20621;-74
2023/09/03 09:06:58;;;;;;;2.77;2.57;;;21.60;99.90;;;;;;5086714;28;20623;-74
2023/09/03 09:09:26;;;;;;;3.63;2.83;;;21.60;99.90;;;;;;5086117;28;21804;-74
2023/09/03 09:12:06;;;;;;;2.70;2.50;;;21.60;99.90;;;;;;5086573;28;20734;-75
2023/09/03 09:14:49;;;;;;;2.10;2.00;;;21.70;99.90;;;;;;5087307;28;20642;-74
2023/09/03 09:17:16;;;;;;;3.40;2.90;;;21.90;99.90;;;;;;5087765;28;20656;-74
2023/09/03 09:19:43;;;;;;;2.57;2.37;;;21.90;99.90;;;;;;5086486;28;20630;-74
2023/09/03 09:22:10;;;;;;;2.37;2.17;;;21.90;99.90;;;;;;5086424;28;20671;-74
2023/09/03 09:24:45;;;;;;;3.50;2.20;;;22.10;99.90;;;;;;5085045;28;20626;-74
2023/09/03 09:27:16;;;;;;;2.83;2.63;;;22.20;99.90;;;;;;5086259;28;20661;-74
2023/09/03 09:29:42;;;;;;;2.47;2.27;;;22.40;99.90;;;;;;5086676;28;20622;-74
2023/09/03 09:32:18;;;;;;;4.40;2.50;;;22.40;99.90;;;;;;5087311;28;20627;-74
2023/09/03 09:34:45;;;;;;;2.90;2.10;;;22.50;99.90;;;;;;5086390;28;21169;-74
2023/09/03 09:37:12;;;;;;;2.70;2.23;;;22.60;99.90;;;;;;5085997;28;20848;-74
2023/09/03 09:39:43;;;;;;;2.00;1.90;;;22.50;99.90;;;;;;5086650;28;20963;-74
2023/09/03 09:42:12;;;;;;;1.70;1.60;;;22.50;99.90;;;;;;5085138;28;20676;-74
2023/09/03 09:44:55;;;;;;;3.37;2.33;;;22.60;99.90;;;;;;5086286;28;20621;-74
2023/09/03 09:47:22;;;;;;;2.40;2.10;;;22.60;99.90;;;;;;5083853;28;20734;-75
2023/09/03 09:49:49;;;;;;;2.50;2.30;;;22.50;99.70;;;;;;5086168;28;20633;-74
2023/09/03 09:52:17;;;;;;;2.00;1.90;;;22.60;99.90;;;;;;5086703;28;20637;-74
2023/09/03 09:54:45;;;;;;;1.80;1.70;;;22.70;99.90;;;;;;5087990;28;20976;-74
2023/09/03 09:57:13;;;;;;;2.20;2.00;;;22.90;99.90;;;;;;5086926;28;20627;-74
2023/09/03 09:59:45;;;;;;;1.93;1.77;;;22.90;99.70;;;;;;5085911;28;20623;-73
2023/09/03 10:02:13;;;;;;;3.03;2.77;;;22.90;99.90;;;;;;5086172;28;20678;-74
2023/09/03 10:04:45;;;;;;;8.87;2.30;;;22.90;99.90;;;;;;5085647;27;21578;-74
2023/09/03 10:07:22;;;;;;;2.30;2.03;;;23.10;99.90;;;;;;5086956;28;20624;-75
2023/09/03 10:09:49;;;;;;;1.90;1.80;;;23.10;99.90;;;;;;5085822;28;20636;-74
2023/09/03 10:12:15;;;;;;;1.97;1.87;;;23.30;99.70;;;;;;5087310;28;20680;-74
2023/09/03 10:14:44;;;;;;;1.70;1.60;;;23.40;99.40;;;;;;5086385;28;20625;-74
2023/09/03 10:17:11;;;;;;;2.20;2.00;;;23.30;98.60;;;;;;5085036;28;20633;-74
2023/09/03 10:19:43;;;;;;;2.07;1.87;;;23.30;98.10;;;;;;5083255;28;20640;-75
2023/09/03 10:22:16;;;;;;;1.77;1.67;;;23.30;97.70;;;;;;5080554;28;20658;-75
2023/09/03 10:24:44;;;;;;;1.70;1.60;;;23.20;98.70;;;;;;5081140;28;20623;-74
2023/09/03 10:27:15;;;;;;;2.90;2.20;;;23.30;98.10;;;;;;5080036;28;20639;-73
2023/09/03 10:29:45;;;;;;;1.50;1.40;;;23.20;97.60;;;;;;5084934;28;20618;-72
2023/09/03 10:32:15;;;;;;;1.37;1.27;;;23.40;97.00;;;;;;5084867;28;20633;-72
2023/09/03 10:34:55;;;;;;;0.93;0.93;;;23.40;97.50;;;;;;5088247;28;20614;-74
2023/09/03 10:40:38;;;;;;;0.80;0.80;;;23.50;96.00;;;;;;5067205;28;20789;-70
2023/09/03 10:43:37;;;;;;;1.37;0.80;;;23.40;94.50;;;;;;5088076;28;20642;-72
2023/09/03 10:46:10;;;;;;;1.40;1.30;;;23.50;94.60;;;;;;5089402;28;20624;-72
2023/09/03 10:48:51;;;;;;;1.40;1.27;;;23.70;95.80;;;;;;5088870;28;21231;-72
2023/09/03 10:51:32;;;;;;;1.23;1.20;;;23.90;95.50;;;;;;5086488;28;20762;-72
2023/09/03 10:54:15;;;;;;;1.47;1.10;;;24.00;94.40;;;;;;5084656;28;21205;-71
2023/09/03 10:57:20;;;;;;;1.23;1.13;;;24.00;94.10;;;;;;5084695;28;20623;-71
2023/09/03 11:00:13;;;;;;;1.43;1.33;;;24.20;94.70;;;;;;5074756;28;21006;-72
2023/09/03 11:02:42;;;;;;;1.50;1.40;;;24.00;93.10;;;;;;5085007;28;21510;-72
2023/09/03 11:05:13;;;;;;;1.83;1.73;;;24.10;94.40;;;;;;5087378;28;20638;-71
2023/09/03 11:07:40;;;;;;;2.40;1.60;;;24.00;94.00;;;;;;5085908;28;20648;-72
2023/09/03 11:10:46;;;;;;;1.40;1.37;;;24.20;94.50;;;;;;5085134;28;20636;-71
2023/09/03 11:13:14;;;;;;;1.20;1.07;;;24.40;93.70;;;;;;5082816;28;20627;-71
2023/09/03 11:15:49;;;;;;;2.20;1.30;;;24.40;94.10;;;;;;5085662;28;20639;-71
2023/09/03 11:18:21;;;;;;;1.47;1.37;;;24.50;92.20;;;;;;5084875;28;20615;-72
2023/09/03 11:20:48;;;;;;;1.47;1.40;;;24.30;92.60;;;;;;5084889;28;20640;-71
2023/09/03 11:23:15;;;;;;;1.23;1.10;;;24.30;93.40;;;;;;5084646;28;20637;-72
2023/09/03 11:25:42;;;;;;;1.50;1.40;;;24.30;92.40;;;;;;5086584;28;21203;-72
2023/09/03 11:28:12;;;;;;;1.00;0.97;;;24.20;92.50;;;;;;5086088;28;20639;-72
2023/09/03 11:30:40;;;;;;;1.70;1.20;;;24.40;93.90;;;;;;5086302;28;20992;-72
2023/09/03 11:33:08;;;;;;;1.07;1.00;;;24.60;93.60;;;;;;5086156;28;20624;-71
2023/09/03 11:35:46;;;;;;;1.53;1.43;;;25.00;93.00;;;;;;5086196;28;21299;-71
2023/09/03 11:38:13;;;;;;;1.47;1.37;;;24.90;91.80;;;;;;5086087;28;20613;-72
2023/09/03 11:40:41;;;;;;;1.30;1.20;;;25.20;92.70;;;;;;5086431;28;20641;-71
2023/09/03 11:43:10;;;;;;;1.90;1.80;;;25.40;91.30;;;;;;5084772;28;20676;-71
2023/09/03 11:45:38;;;;;;;1.13;1.03;;;25.80;92.40;;;;;;5086516;28;20629;-71
2023/09/03 11:48:07;;;;;;;1.57;1.13;;;25.90;91.70;;;;;;5086204;28;20667;-71
2023/09/03 11:50:35;;;;;;;1.57;1.47;;;26.00;91.50;;;;;;5084939;28;20629;-71
2023/09/03 11:53:09;;;;;;;1.10;1.10;;;26.10;90.80;;;;;;5085921;28;20639;-71
2023/09/03 11:55:38;;;;;;;1.40;1.30;;;26.40;90.90;;;;;;5086809;28;20628;-71
2023/09/03 11:58:08;;;;;;;1.13;1.10;;;26.50;90.60;;;;;;5082726;28;20690;-71
2023/09/03 12:00:37;;;;;;;1.47;1.37;;;26.60;90.80;;;;;;5085222;28;20627;-70
2023/09/03 12:03:05;;;;;;;1.00;0.90;;;27.10;90.70;;;;;;5085239;28;21946;-71
2023/09/03 12:05:33;;;;;;;1.13;1.13;;;26.70;88.70;;;;;;5086047;28;20634;-70
2023/09/03 12:08:03;;;;;;;1.03;1.03;;;26.70;88.80;;;;;;5085452;28;20715;-71
2023/09/03 12:10:31;;;;;;;1.60;1.50;;;26.70;88.70;;;;;;5085281;28;20633;-71
2023/09/03 12:12:59;;;;;;;1.33;1.23;;;26.80;88.80;;;;;;5085824;28;21036;-71
2023/09/03 12:15:29;;;;;;;1.20;1.20;;;26.30;88.40;;;;;;5080830;28;20991;-71
2023/09/03 12:20:51;;;;;;;1.73;1.43;;;25.90;90.30;;;;;;5084024;28;20630;-71
2023/09/03 12:23:20;;;;;;;1.83;1.43;;;26.00;90.20;;;;;;5082472;28;20746;-71
2023/09/03 12:25:47;;;;;;;1.00;1.00;;;26.10;91.20;;;;;;5083727;28;20647;-71
2023/09/03 12:28:13;;;;;;;1.37;1.27;;;25.70;90.40;;;;;;5086147;28;20639;-71
2023/09/03 12:30:57;;;;;;;1.17;1.10;;;25.50;91.30;;;;;;5089472;28;21226;-71
2023/09/03 12:33:26;;;;;;;1.10;1.10;;;25.80;91.50;;;;;;5088622;28;20636;-70
2023/09/03 12:36:10;;;;;;;1.63;1.43;;;25.80;91.00;;;;;;5088425;28;21168;-70
2023/09/03 12:38:56;;;;;;;1.40;1.30;;;25.80;90.40;;;;;;5088096;28;20634;-71
2023/09/03 12:41:25;;;;;;;1.33;1.23;;;25.90;90.30;;;;;;5088523;28;20632;-71
2023/09/03 12:43:52;;;;;;;4.00;1.23;;;26.00;91.20;;;;;;5087585;28;20794;-71
2023/09/03 12:46:19;;;;;;;1.07;1.07;;;26.10;91.30;;;;;;5088829;28;20632;-72
2023/09/03 12:48:46;;;;;;;1.30;1.20;;;25.70;91.40;;;;;;5087268;28;20643;-72
2023/09/03 12:51:17;;;;;;;2.10;1.90;;;25.60;90.80;;;;;;5087835;28;20627;-72
2023/09/03 12:53:45;;;;;;;2.63;1.70;;;25.70;91.70;;;;;;5085880;28;20660;-71
2023/09/03 12:56:14;;;;;;;1.53;1.43;;;25.80;91.50;;;;;;5087139;27;20639;-72
2023/09/03 12:58:41;;;;;;;1.33;1.23;;;26.10;89.90;;;;;;5088301;28;21008;-72
2023/09/03 13:01:09;;;;;;;2.50;1.70;;;26.30;89.60;;;;;;5086514;28;20669;-72
2023/09/03 13:03:36;;;;;;;2.07;1.63;;;26.10;89.80;;;;;;5087896;28;20631;-72
2023/09/03 13:06:02;;;;;;;1.40;1.30;;;26.10;90.40;;;;;;5088219;28;21219;-72
2023/09/03 13:08:32;;;;;;;1.80;1.70;;;26.60;90.10;;;;;;5088359;28;20890;-72